Time;durP1;ratioP1;P1;durP2;ratioP2;P2;SDS_P1;SDS_P2;PMS_P1;PMS_P2;Temp;Humidity;BMP_temperature;BMP_pressure;BME280_temperature;BME280_humidity;BME280_pressure;Samples;Min_cycle;Max_cycle;Signal;HPM_P1;HPM_P2
2022/09/29 00:00:39;;;;;;;11.27;7.88;;;22.10;63.70;;;;;;5054173;28;20029;-87
2022/09/29 00:03:10;;;;;;;12.63;8.07;;;22.00;63.60;;;;;;5055801;28;20071;-87
2022/09/29 00:05:35;;;;;;;13.25;8.27;;;22.20;63.30;;;;;;5055383;28;20048;-88
2022/09/29 00:08:01;;;;;;;10.68;8.15;;;22.20;63.40;;;;;;5055102;28;20017;-88
2022/09/29 00:10:27;;;;;;;13.45;7.18;;;22.00;64.40;;;;;;5054896;28;20029;-88
2022/09/29 00:12:52;;;;;;;10.00;6.38;;;22.10;63.70;;;;;;5055285;28;20108;-87
2022/09/29 00:15:18;;;;;;;9.77;6.85;;;22.10;63.80;;;;;;5055271;28;20062;-88
2022/09/29 00:17:44;;;;;;;9.85;7.25;;;21.70;64.70;;;;;;5055364;28;20055;-88
2022/09/29 00:20:10;;;;;;;10.00;7.13;;;21.50;66.00;;;;;;5054849;28;20025;-87
2022/09/29 00:22:35;;;;;;;11.88;6.63;;;21.40;65.70;;;;;;5058264;28;20032;-88
2022/09/29 00:25:03;;;;;;;9.90;7.43;;;21.60;65.10;;;;;;5058764;28;20024;-86
2022/09/29 00:27:29;;;;;;;11.73;8.30;;;21.10;66.90;;;;;;5058116;28;20098;-88
2022/09/29 00:29:55;;;;;;;15.82;9.10;;;20.70;68.40;;;;;;5058461;28;20355;-88
2022/09/29 00:32:20;;;;;;;11.57;8.27;;;21.00;68.10;;;;;;5054435;28;20032;-87
2022/09/29 00:34:46;;;;;;;12.73;8.25;;;21.30;66.40;;;;;;5046150;28;20482;-87
2022/09/29 00:37:13;;;;;;;12.52;8.20;;;21.70;65.50;;;;;;5046580;28;20075;-87
2022/09/29 00:39:38;;;;;;;11.55;7.05;;;21.90;64.50;;;;;;5038024;28;20415;-86
2022/09/29 00:42:04;;;;;;;10.88;7.63;;;22.00;64.40;;;;;;5038257;28;20037;-87
2022/09/29 00:45:01;;;;;;;11.52;7.57;;;22.00;64.70;;;;;;5037906;28;20029;-86
2022/09/29 00:47:28;;;;;;;11.40;7.15;;;22.10;64.20;;;;;;5038010;28;20061;-86
2022/09/29 00:50:10;;;;;;;10.75;6.68;;;21.90;65.20;;;;;;5039027;28;20040;-86
2022/09/29 00:52:45;;;;;;;14.20;8.07;;;21.90;64.70;;;;;;5066408;28;20036;-86
2022/09/29 00:55:19;;;;;;;16.27;9.82;;;21.50;66.40;;;;;;5057948;28;20535;-86
2022/09/29 00:57:56;;;;;;;10.93;8.43;;;21.50;66.50;;;;;;5056808;28;20025;-86
2022/09/29 01:00:22;;;;;;;11.52;7.75;;;21.70;66.10;;;;;;5037804;28;20445;-87
2022/09/29 01:03:13;;;;;;;15.55;8.93;;;21.60;65.50;;;;;;5037659;28;20471;-85
2022/09/29 01:05:44;;;;;;;14.43;8.15;;;21.40;66.20;;;;;;5043392;28;20365;-86
2022/09/29 01:08:16;;;;;;;11.85;8.55;;;21.60;65.40;;;;;;5038776;28;20029;-86
2022/09/29 01:10:46;;;;;;;16.77;9.63;;;21.80;64.60;;;;;;5057376;28;20085;-86
2022/09/29 01:13:13;;;;;;;15.25;8.90;;;21.90;64.10;;;;;;5057179;28;20051;-86
2022/09/29 01:15:39;;;;;;;16.52;9.48;;;22.10;63.60;;;;;;5056835;28;20149;-86
2022/09/29 01:18:06;;;;;;;17.67;9.95;;;22.10;63.60;;;;;;5057243;28;20028;-86
2022/09/29 01:20:38;;;;;;;15.70;9.65;;;22.10;63.50;;;;;;5057122;28;20044;-87
2022/09/29 01:23:47;;;;;;;15.15;9.88;;;22.10;63.60;;;;;;5050696;28;20042;-86
2022/09/29 01:26:41;;;;;;;16.17;10.90;;;22.10;63.60;;;;;;4979503;28;20034;-86
2022/09/29 01:29:24;;;;;;;12.73;7.80;;;22.10;63.50;;;;;;4993423;28;20069;-85
2022/09/29 01:32:26;;;;;;;13.35;8.70;;;21.80;64.70;;;;;;4993596;28;20057;-86
2022/09/29 01:35:05;;;;;;;14.65;9.32;;;21.70;64.80;;;;;;4954855;29;20071;-85
2022/09/29 01:38:01;;;;;;;9.82;6.93;;;21.90;64.20;;;;;;4954453;29;20114;-86
2022/09/29 01:40:41;;;;;;;14.38;9.00;;;22.00;64.00;;;;;;4938855;29;20058;-86
2022/09/29 01:43:08;;;;;;;14.85;9.45;;;22.00;63.70;;;;;;4938783;29;20051;-85
2022/09/29 01:45:50;;;;;;;13.63;9.23;;;22.00;64.00;;;;;;4954669;29;20035;-86
2022/09/29 01:48:21;;;;;;;14.30;9.07;;;22.10;63.40;;;;;;4938559;29;20023;-86
2022/09/29 01:50:53;;;;;;;13.27;8.52;;;22.10;63.50;;;;;;4938435;29;20091;-86
2022/09/29 01:53:27;;;;;;;14.57;8.82;;;21.90;64.20;;;;;;4954738;29;20051;-86
2022/09/29 01:56:00;;;;;;;12.48;8.05;;;21.80;64.10;;;;;;4938383;28;20066;-87
2022/09/29 01:58:55;;;;;;;15.10;8.85;;;21.40;65.40;;;;;;4947367;28;20043;-86
2022/09/29 02:01:25;;;;;;;11.65;8.70;;;21.30;66.30;;;;;;4973639;28;20041;-86
2022/09/29 02:04:03;;;;;;;16.17;10.50;;;21.50;65.50;;;;;;5008193;28;20126;-86
2022/09/29 02:06:39;;;;;;;13.70;8.85;;;21.70;64.80;;;;;;4996295;28;20034;-88
2022/09/29 02:09:11;;;;;;;13.13;8.82;;;21.90;64.30;;;;;;4996394;28;20033;-86
2022/09/29 02:11:40;;;;;;;17.08;10.75;;;22.00;64.00;;;;;;5015290;28;20085;-86
2022/09/29 02:14:23;;;;;;;12.85;9.00;;;22.10;64.10;;;;;;5036037;28;20078;-84
2022/09/29 02:17:18;;;;;;;9.43;7.00;;;22.10;63.60;;;;;;5048856;28;20055;-87
2022/09/29 02:19:46;;;;;;;10.95;7.90;;;22.00;63.60;;;;;;5041644;28;20033;-86
2022/09/29 02:22:12;;;;;;;11.48;7.97;;;21.80;64.30;;;;;;5055977;28;20055;-87
2022/09/29 02:24:38;;;;;;;11.25;8.35;;;21.40;65.70;;;;;;5052128;28;20055;-84
2022/09/29 02:27:04;;;;;;;11.25;7.55;;;21.20;66.30;;;;;;5036305;28;20483;-87
2022/09/29 02:29:32;;;;;;;22.58;12.45;;;21.10;66.20;;;;;;5036359;28;20025;-86
2022/09/29 02:32:01;;;;;;;17.58;11.02;;;21.10;66.50;;;;;;5046485;28;20029;-87
2022/09/29 02:34:32;;;;;;;12.75;8.48;;;21.40;65.50;;;;;;5056106;28;20020;-86
2022/09/29 02:37:35;;;;;;;11.25;8.70;;;21.50;65.40;;;;;;5055975;28;20056;-86
2022/09/29 02:40:42;;;;;;;16.70;10.25;;;21.40;65.10;;;;;;5056053;28;20024;-86
2022/09/29 02:43:25;;;;;;;13.38;8.80;;;21.30;65.90;;;;;;5055098;28;20040;-87
2022/09/29 02:45:54;;;;;;;15.70;10.65;;;21.50;65.00;;;;;;5056218;28;20028;-86
2022/09/29 02:48:31;;;;;;;10.73;7.78;;;21.70;64.80;;;;;;5052095;28;20028;-85
2022/09/29 02:51:02;;;;;;;12.18;8.45;;;21.90;64.10;;;;;;5036008;28;20025;-87
2022/09/29 02:53:50;;;;;;;22.30;11.93;;;21.40;65.90;;;;;;5036367;28;20123;-86
2022/09/29 02:56:24;;;;;;;16.05;10.05;;;21.50;65.50;;;;;;5035805;28;20495;-86
2022/09/29 02:59:24;;;;;;;15.10;10.68;;;21.50;66.00;;;;;;5041563;28;20075;-86
2022/09/29 03:01:55;;;;;;;16.63;10.55;;;21.50;66.00;;;;;;5036085;28;20083;-87
2022/09/29 03:04:24;;;;;;;15.38;10.48;;;21.70;64.90;;;;;;5035861;28;20021;-87
2022/09/29 03:06:50;;;;;;;19.92;11.65;;;21.80;64.80;;;;;;5051574;28;20024;-86
2022/09/29 03:09:16;;;;;;;26.38;13.23;;;21.90;64.50;;;;;;5055672;28;20033;-86
2022/09/29 03:11:41;;;;;;;23.55;11.73;;;21.90;65.10;;;;;;5055456;28;20029;-84
2022/09/29 03:14:07;;;;;;;24.38;12.98;;;22.00;64.10;;;;;;5055666;28;20028;-84
2022/09/29 03:16:34;;;;;;;21.50;12.75;;;22.10;63.90;;;;;;5055036;28;20032;-82
2022/09/29 03:18:59;;;;;;;23.13;13.23;;;22.10;63.80;;;;;;5055048;28;20037;-82
2022/09/29 03:21:25;;;;;;;15.82;11.02;;;22.10;64.00;;;;;;5054687;28;20071;-83
2022/09/29 03:23:51;;;;;;;13.50;10.23;;;22.00;64.50;;;;;;5035641;28;20025;-83
2022/09/29 03:26:17;;;;;;;15.20;10.85;;;21.70;64.90;;;;;;5035388;28;20036;-84
2022/09/29 03:28:42;;;;;;;18.70;12.48;;;21.20;66.20;;;;;;5035496;28;20049;-83
2022/09/29 03:31:09;;;;;;;17.63;12.32;;;20.80;67.90;;;;;;5039128;28;20025;-83
2022/09/29 03:33:37;;;;;;;23.00;12.93;;;21.10;66.70;;;;;;5055024;28;20498;-82
2022/09/29 03:36:04;;;;;;;23.13;13.95;;;21.40;65.80;;;;;;5075868;28;20024;-82
2022/09/29 03:38:31;;;;;;;17.40;12.05;;;21.60;65.40;;;;;;5058783;28;20017;-83
2022/09/29 03:40:56;;;;;;;20.45;13.15;;;21.70;65.10;;;;;;5058653;28;20111;-82
2022/09/29 03:43:22;;;;;;;15.20;11.07;;;21.70;65.80;;;;;;5058817;28;20120;-82
2022/09/29 03:45:53;;;;;;;19.77;12.48;;;21.70;65.50;;;;;;5059078;28;20028;-83
2022/09/29 03:48:19;;;;;;;;;;;21.60;66.50;;;;;;5058587;28;20029;-83
2022/09/29 03:50:45;;;;;;;20.45;12.25;;;21.60;65.70;;;;;;5058095;28;20312;-80
2022/09/29 03:53:12;;;;;;;18.63;12.05;;;21.70;65.10;;;;;;5058240;28;20036;-82
2022/09/29 03:55:37;;;;;;;19.10;11.77;;;21.80;64.80;;;;;;5058636;28;20067;-83
2022/09/29 03:58:03;;;;;;;26.58;13.77;;;21.80;64.70;;;;;;5058867;28;20052;-82
2022/09/29 04:00:29;;;;;;;25.60;15.13;;;21.80;65.00;;;;;;5058318;28;20025;-82
2022/09/29 04:02:55;;;;;;;22.98;12.90;;;21.70;65.50;;;;;;5057867;28;20103;-83
2022/09/29 04:05:20;;;;;;;22.13;14.25;;;21.70;64.90;;;;;;5058256;28;20021;-83
2022/09/29 04:07:46;;;;;;;15.43;11.55;;;21.70;65.30;;;;;;5058223;28;20024;-83
2022/09/29 04:10:12;;;;;;;17.38;11.88;;;21.60;65.70;;;;;;5076396;28;20028;-84
2022/09/29 04:12:41;;;;;;;25.67;15.23;;;21.10;67.20;;;;;;5054171;28;20491;-83
2022/09/29 04:15:07;;;;;;;22.38;13.70;;;21.20;66.90;;;;;;5038153;28;20431;-83
2022/09/29 04:17:33;;;;;;;20.05;12.98;;;21.40;66.00;;;;;;5039773;28;20021;-82
2022/09/29 04:19:59;;;;;;;20.30;13.25;;;21.50;65.50;;;;;;5038005;28;20036;-82
2022/09/29 04:22:24;;;;;;;21.98;13.38;;;21.50;65.60;;;;;;5068295;28;20083;-82
2022/09/29 04:24:51;;;;;;;19.40;13.00;;;21.50;65.70;;;;;;5057494;28;20364;-81
2022/09/29 04:27:17;;;;;;;19.40;13.10;;;21.50;65.70;;;;;;5057691;28;20440;-83
2022/09/29 04:29:43;;;;;;;23.90;13.93;;;21.40;66.00;;;;;;5057481;28;20032;-83
2022/09/29 04:32:09;;;;;;;23.30;14.68;;;21.40;65.80;;;;;;5057707;28;20348;-83
2022/09/29 04:34:35;;;;;;;24.35;14.23;;;21.40;65.90;;;;;;5057617;28;20107;-83
2022/09/29 04:37:01;;;;;;;22.35;14.30;;;21.40;65.90;;;;;;5039941;28;20108;-82
2022/09/29 04:39:27;;;;;;;21.92;15.10;;;21.50;66.00;;;;;;5049092;28;20025;-84
2022/09/29 04:41:52;;;;;;;21.50;14.32;;;21.50;66.10;;;;;;5037455;28;20427;-83
2022/09/29 04:44:23;;;;;;;19.58;13.02;;;21.50;65.90;;;;;;5037350;28;20055;-84
2022/09/29 04:46:50;;;;;;;24.48;14.75;;;21.40;66.50;;;;;;5052127;28;20025;-84
2022/09/29 04:49:19;;;;;;;21.90;14.35;;;21.50;66.70;;;;;;5045701;28;20383;-84
2022/09/29 04:51:45;;;;;;;19.38;13.38;;;21.70;66.20;;;;;;5057179;28;20120;-83
2022/09/29 04:54:11;;;;;;;31.67;17.27;;;21.40;66.40;;;;;;5057085;28;20135;-83
2022/09/29 04:56:37;;;;;;;18.45;12.50;;;21.20;67.60;;;;;;5057387;28;20086;-83
2022/09/29 04:59:03;;;;;;;22.52;13.95;;;21.00;67.60;;;;;;5056936;28;20093;-83
2022/09/29 05:01:29;;;;;;;23.30;14.63;;;20.90;68.40;;;;;;5055457;28;20418;-83
2022/09/29 05:03:54;;;;;;;24.48;15.00;;;21.00;67.50;;;;;;5049736;28;20540;-83
2022/09/29 05:06:20;;;;;;;23.60;14.63;;;21.40;66.50;;;;;;5056802;28;20049;-83
2022/09/29 05:08:46;;;;;;;24.85;15.55;;;21.70;65.90;;;;;;5051643;28;20028;-83
2022/09/29 05:11:12;;;;;;;25.63;15.77;;;21.80;65.60;;;;;;5048789;28;20081;-82
2022/09/29 05:13:37;;;;;;;26.30;14.93;;;21.90;65.40;;;;;;5057006;28;20025;-83
2022/09/29 05:16:04;;;;;;;28.17;15.57;;;22.00;65.20;;;;;;5053429;28;20031;-82
2022/09/29 05:18:30;;;;;;;24.70;15.70;;;22.10;64.60;;;;;;5045386;28;20028;-82
2022/09/29 05:21:01;;;;;;;25.20;15.40;;;22.20;64.50;;;;;;5043143;28;20059;-81
2022/09/29 05:23:27;;;;;;;26.38;15.85;;;22.10;64.50;;;;;;5048407;28;20049;-82
2022/09/29 05:25:56;;;;;;;29.00;17.10;;;22.10;64.50;;;;;;5041799;28;20118;-82
2022/09/29 05:28:21;;;;;;;27.75;16.15;;;22.20;64.30;;;;;;5043501;28;20022;-81
2022/09/29 05:30:47;;;;;;;27.77;17.90;;;22.10;64.30;;;;;;5036396;28;20471;-82
2022/09/29 05:33:13;;;;;;;25.42;16.98;;;22.10;64.50;;;;;;5044419;28;20108;-82
2022/09/29 05:35:38;;;;;;;29.30;17.60;;;22.10;64.70;;;;;;5034338;28;20088;-83
2022/09/29 05:38:04;;;;;;;26.42;17.73;;;22.00;64.80;;;;;;5036407;28;20078;-83
2022/09/29 05:40:30;;;;;;;30.80;18.20;;;22.00;64.80;;;;;;5043379;28;20032;-83
2022/09/29 05:42:57;;;;;;;30.50;17.73;;;21.90;65.00;;;;;;5036530;28;20039;-82
2022/09/29 05:45:23;;;;;;;32.28;18.30;;;22.00;65.10;;;;;;5052266;28;20029;-81
2022/09/29 05:47:49;;;;;;;33.20;17.67;;;22.00;64.90;;;;;;5046074;28;20043;-83
2022/09/29 05:50:14;;;;;;;31.58;16.40;;;22.10;64.80;;;;;;5050779;28;20067;-82
2022/09/29 05:52:40;;;;;;;27.70;17.30;;;22.10;64.80;;;;;;5031787;28;20033;-81
2022/09/29 05:55:08;;;;;;;29.80;16.95;;;22.20;64.80;;;;;;5032291;28;20021;-83
2022/09/29 05:57:35;;;;;;;31.33;17.75;;;22.10;65.30;;;;;;5035184;28;20033;-82
2022/09/29 06:00:01;;;;;;;27.73;17.20;;;22.10;65.10;;;;;;5041006;28;20044;-83
2022/09/29 06:02:27;;;;;;;32.63;16.75;;;22.20;64.90;;;;;;5050459;28;20037;-82
2022/09/29 06:04:52;;;;;;;24.55;15.93;;;22.20;64.80;;;;;;5037850;28;20020;-82
2022/09/29 06:07:18;;;;;;;29.50;16.67;;;22.20;64.70;;;;;;5051025;28;20502;-81
2022/09/29 06:09:44;;;;;;;35.10;18.25;;;22.20;64.90;;;;;;5046748;28;20786;-82
2022/09/29 06:12:10;;;;;;;30.10;17.17;;;22.20;65.10;;;;;;5033062;28;20033;-83
2022/09/29 06:14:35;;;;;;;32.65;17.95;;;22.30;64.90;;;;;;5032485;28;20026;-83
2022/09/29 06:17:01;;;;;;;36.22;18.88;;;22.30;64.60;;;;;;5041417;28;20476;-83
2022/09/29 06:19:27;;;;;;;29.80;16.48;;;22.30;64.70;;;;;;5052314;28;20467;-81
2022/09/29 06:21:52;;;;;;;23.92;14.73;;;22.30;65.00;;;;;;5052002;28;20491;-81
2022/09/29 06:24:18;;;;;;;26.92;16.17;;;22.30;65.20;;;;;;5052134;28;20037;-83
2022/09/29 06:26:44;;;;;;;22.58;14.57;;;22.30;65.30;;;;;;5052157;28;20036;-82
2022/09/29 06:29:10;;;;;;;25.85;15.05;;;22.40;65.00;;;;;;5040673;28;20030;-82
2022/09/29 06:31:36;;;;;;;26.85;15.82;;;22.50;64.80;;;;;;5036611;28;20025;-82
2022/09/29 06:34:03;;;;;;;22.58;14.98;;;22.50;64.70;;;;;;5047163;28;20464;-82
2022/09/29 06:39:15;;;;;;;18.13;13.38;;;22.60;64.50;;;;;;5052208;28;20043;-83
2022/09/29 06:41:47;;;;;;;27.95;15.98;;;22.50;64.60;;;;;;5044610;28;20504;-81
2022/09/29 06:44:13;;;;;;;25.65;15.77;;;22.30;65.40;;;;;;5037986;28;20052;-82
2022/09/29 06:46:39;;;;;;;34.03;17.63;;;22.40;65.10;;;;;;5042084;28;20052;-81
2022/09/29 06:49:05;;;;;;;21.55;14.68;;;22.40;65.10;;;;;;5043556;28;20035;-79
2022/09/29 06:51:31;;;;;;;20.15;13.50;;;22.30;65.50;;;;;;5051380;28;20115;-80
2022/09/29 06:53:56;;;;;;;18.67;11.02;;;22.20;65.90;;;;;;5036625;28;20144;-79
2022/09/29 06:56:25;;;;;;;13.70;8.57;;;21.90;66.10;;;;;;5044180;28;20025;-83
2022/09/29 06:58:50;;;;;;;7.88;4.20;;;21.70;66.50;;;;;;5051570;28;20035;-83
2022/09/29 07:01:18;;;;;;;5.15;3.45;;;21.40;66.10;;;;;;5051327;28;20037;-81
2022/09/29 07:03:44;;;;;;;5.03;3.28;;;21.20;66.90;;;;;;5052316;28;20025;-83
2022/09/29 07:06:10;;;;;;;4.60;3.00;;;21.00;67.30;;;;;;5051728;28;20126;-83
2022/09/29 07:08:37;;;;;;;5.07;2.85;;;21.00;67.30;;;;;;5051648;28;20029;-83
2022/09/29 07:11:05;;;;;;;4.50;2.80;;;21.30;66.30;;;;;;5056128;28;20017;-83
2022/09/29 07:13:31;;;;;;;4.30;2.85;;;21.40;66.70;;;;;;5071890;28;20039;-81
2022/09/29 07:16:05;;;;;;;3.90;2.88;;;21.40;66.80;;;;;;5056222;28;20029;-81
2022/09/29 07:18:36;;;;;;;3.90;2.70;;;21.40;66.40;;;;;;5055988;28;20017;-79
2022/09/29 07:21:03;;;;;;;3.58;2.40;;;21.60;65.70;;;;;;5042163;28;20453;-80
2022/09/29 07:23:29;;;;;;;5.15;2.65;;;21.70;65.70;;;;;;5056012;28;20029;-83
2022/09/29 07:25:55;;;;;;;4.10;2.58;;;21.70;65.60;;;;;;5055284;28;20028;-81
2022/09/29 07:28:21;;;;;;;3.90;2.88;;;21.60;65.80;;;;;;5055477;28;20021;-92
2022/09/29 07:31:05;;;;;;;4.22;2.50;;;21.40;65.90;;;;;;5055602;28;20037;-80
2022/09/29 07:33:31;;;;;;;3.80;2.67;;;21.20;66.30;;;;;;5038534;28;20017;-86
2022/09/29 07:35:59;;;;;;;4.68;3.13;;;21.20;66.60;;;;;;5035381;28;20103;-80
2022/09/29 07:38:25;;;;;;;4.03;2.88;;;21.20;66.40;;;;;;5036563;28;20029;-80
2022/09/29 07:40:51;;;;;;;4.57;2.67;;;21.30;65.90;;;;;;5035577;28;20029;-84
2022/09/29 07:43:17;;;;;;;4.03;2.90;;;21.30;65.90;;;;;;5056217;28;20021;-85
2022/09/29 07:45:50;;;;;;;3.88;2.20;;;21.30;66.50;;;;;;5052833;28;20021;-81
2022/09/29 07:48:16;;;;;;;4.00;2.50;;;21.30;67.00;;;;;;5047931;28;20026;-84
2022/09/29 07:50:43;;;;;;;4.82;2.92;;;21.20;66.80;;;;;;5035535;28;20021;-83
2022/09/29 07:53:10;;;;;;;3.67;2.40;;;21.30;66.70;;;;;;5050581;28;20036;-89
2022/09/29 07:55:36;;;;;;;3.95;2.63;;;21.20;67.10;;;;;;5055708;28;20024;-86
2022/09/29 07:58:02;;;;;;;4.18;2.35;;;21.30;67.20;;;;;;5056867;28;20027;-91
2022/09/29 08:00:31;;;;;;;3.83;2.42;;;21.60;66.20;;;;;;5078890;28;20067;-93
2022/09/29 08:03:08;;;;;;;4.85;2.28;;;21.80;67.50;;;;;;5041551;28;20034;-89
2022/09/29 08:05:34;;;;;;;3.20;2.20;;;22.10;66.80;;;;;;5047223;28;20032;-84
2022/09/29 08:08:01;;;;;;;3.47;2.00;;;22.40;66.20;;;;;;5048793;28;20057;-90
2022/09/29 08:10:28;;;;;;;3.40;2.15;;;22.50;65.80;;;;;;5054044;28;20494;-94
2022/09/29 08:12:54;;;;;;;10.77;9.63;;;22.50;65.60;;;;;;5054746;28;20052;-96
2022/09/29 08:15:24;;;;;;;4.60;2.42;;;22.50;65.30;;;;;;5053789;28;20024;-94
2022/09/29 08:17:53;;;;;;;3.95;2.20;;;22.40;65.80;;;;;;5073353;28;20423;-88
2022/09/29 08:20:21;;;;;;;3.25;2.13;;;22.40;65.60;;;;;;5051304;28;20025;-94
2022/09/29 08:22:47;;;;;;;2.95;2.05;;;22.50;64.80;;;;;;5051294;28;20468;-92
2022/09/29 08:25:18;;;;;;;3.20;2.00;;;22.50;65.70;;;;;;5054393;28;20472;-94
2022/09/29 08:27:44;;;;;;;3.65;1.88;;;22.30;65.60;;;;;;5061046;28;20033;-84
2022/09/29 08:30:11;;;;;;;3.10;1.98;;;22.10;65.90;;;;;;5044303;28;20029;-87
2022/09/29 08:32:37;;;;;;;3.28;2.30;;;22.10;66.00;;;;;;5049896;28;20066;-84
2022/09/29 08:35:03;;;;;;;3.83;2.28;;;22.20;65.50;;;;;;5048292;28;20387;-85
2022/09/29 08:37:32;;;;;;;4.22;2.08;;;22.40;65.40;;;;;;5056000;28;20376;-90
2022/09/29 08:39:57;;;;;;;2.83;1.67;;;22.40;65.60;;;;;;4346492;28;10000725;-82
2022/09/29 08:42:29;;;;;;;3.30;1.95;;;22.70;66.30;;;;;;5039449;28;20040;-87
2022/09/29 08:45:04;;;;;;;3.17;1.90;;;22.70;66.00;;;;;;5048196;28;20021;-88
2022/09/29 08:47:49;;;;;;;3.15;2.00;;;22.50;66.40;;;;;;5045107;28;20025;-84
2022/09/29 08:50:30;;;;;;;2.85;1.80;;;22.40;64.90;;;;;;5055693;28;20032;-87
2022/09/29 08:52:59;;;;;;;2.88;1.90;;;22.40;65.20;;;;;;5055673;28;20036;-86
2022/09/29 08:55:40;;;;;;;4.38;2.10;;;22.50;65.90;;;;;;5048076;28;20040;-93
2022/09/29 08:58:10;;;;;;;;;;;22.50;65.90;;;;;;5041305;28;20021;-83
2022/09/29 09:00:50;;;;;;;4.97;2.40;;;22.50;64.10;;;;;;5040005;28;19958;-83
2022/09/29 09:04:00;;;;;;;3.42;2.45;;;22.40;63.70;;;;;;5055082;28;20127;-87
2022/09/29 09:06:49;;;;;;;4.63;2.10;;;22.60;64.30;;;;;;5039807;28;20032;-82
2022/09/29 09:09:23;;;;;;;5.95;2.40;;;22.60;63.70;;;;;;5036418;28;20396;-83
2022/09/29 09:12:19;;;;;;;3.88;2.80;;;22.50;65.40;;;;;;5051252;28;20024;-86
2022/09/29 09:15:01;;;;;;;4.20;2.13;;;22.50;64.40;;;;;;5057420;28;20024;-88
2022/09/29 09:17:38;;;;;;;3.55;2.30;;;22.50;64.80;;;;;;5056911;28;20446;-87
2022/09/29 09:20:45;;;;;;;3.35;2.13;;;22.70;64.70;;;;;;5060459;28;20084;-83
2022/09/29 09:23:21;;;;;;;3.58;2.42;;;23.10;63.10;;;;;;4992339;28;20438;-88
2022/09/29 09:25:49;;;;;;;3.38;2.30;;;23.00;63.60;;;;;;4988674;28;20026;-89
2022/09/29 09:28:27;;;;;;;3.10;2.20;;;22.50;64.30;;;;;;4992731;28;20036;-80
2022/09/29 09:31:15;;;;;;;4.60;2.20;;;22.70;65.00;;;;;;4995712;28;20034;-82
2022/09/29 09:33:46;;;;;;;4.13;2.00;;;23.00;64.00;;;;;;4977415;28;20042;-84
2022/09/29 09:36:36;;;;;;;3.10;1.80;;;23.30;63.90;;;;;;4992687;28;20030;-86
2022/09/29 09:39:24;;;;;;;3.08;2.00;;;23.40;63.10;;;;;;4967078;28;20039;-85
2022/09/29 09:41:53;;;;;;;2.80;1.90;;;23.50;63.40;;;;;;4957542;28;20035;-89
2022/09/29 09:44:21;;;;;;;3.83;1.90;;;23.50;62.70;;;;;;4957306;28;20030;-84
2022/09/29 09:47:01;;;;;;;4.18;2.60;;;23.50;63.30;;;;;;4974852;28;20038;-87
2022/09/29 09:49:36;;;;;;;4.80;2.92;;;23.60;62.90;;;;;;4975683;28;20080;-85
2022/09/29 09:52:18;;;;;;;3.83;2.42;;;23.70;61.70;;;;;;5002379;28;20042;-82
2022/09/29 09:54:56;;;;;;;3.25;2.28;;;23.50;62.90;;;;;;4977641;28;20034;-84
2022/09/29 09:57:52;;;;;;;4.40;2.45;;;23.40;62.90;;;;;;4983578;28;20076;-84
2022/09/29 10:00:32;;;;;;;3.75;2.50;;;23.90;63.30;;;;;;5072005;28;20035;-84
2022/09/29 10:03:03;;;;;;;3.90;2.60;;;24.20;61.70;;;;;;5051738;28;20037;-82
2022/09/29 10:05:36;;;;;;;;;;;24.30;61.40;;;;;;5050203;28;20116;-81
2022/09/29 10:08:03;;;;;;;5.95;2.83;;;24.20;61.30;;;;;;5063247;28;19915;-82
2022/09/29 10:10:29;;;;;;;3.50;2.50;;;24.40;60.20;;;;;;5043679;28;20032;-81
2022/09/29 10:13:05;;;;;;;3.53;2.30;;;24.50;60.00;;;;;;4707659;28;10000009;-80
2022/09/29 10:15:42;;;;;;;4.65;3.20;;;24.60;60.50;;;;;;5036684;28;20068;-82
2022/09/29 10:18:13;;;;;;;4.05;2.80;;;24.60;60.50;;;;;;5055035;28;20029;-81
2022/09/29 10:20:42;;;;;;;5.25;2.60;;;24.60;60.40;;;;;;5038399;28;20049;-80
2022/09/29 10:23:32;;;;;;;3.40;2.47;;;24.30;61.00;;;;;;5067009;28;20029;-81
2022/09/29 10:26:07;;;;;;;3.30;2.35;;;24.10;60.80;;;;;;5050931;28;20028;-80
2022/09/29 10:29:01;;;;;;;5.25;2.40;;;23.90;60.90;;;;;;5050432;28;20396;-80
2022/09/29 10:31:29;;;;;;;4.28;2.10;;;23.90;61.60;;;;;;5045417;28;20090;-79
2022/09/29 10:34:03;;;;;;;4.03;2.40;;;24.10;61.80;;;;;;5045166;28;20040;-86
2022/09/29 10:36:45;;;;;;;3.40;2.00;;;24.30;61.70;;;;;;5066315;28;20112;-86
2022/09/29 10:39:37;;;;;;;3.58;2.28;;;24.10;60.90;;;;;;5041559;28;20038;-80
2022/09/29 10:42:14;;;;;;;43.20;5.25;;;23.80;61.20;;;;;;5035162;28;20040;-79
2022/09/29 10:44:39;;;;;;;3.88;1.90;;;23.80;61.60;;;;;;5049336;28;20099;-78
2022/09/29 10:47:14;;;;;;;5.60;2.10;;;23.80;62.40;;;;;;5049130;28;20033;-91
2022/09/29 10:49:40;;;;;;;3.33;1.77;;;23.90;62.40;;;;;;5048066;28;20104;-80
2022/09/29 10:52:20;;;;;;;2.88;1.60;;;23.70;62.70;;;;;;5037373;28;20166;-80
2022/09/29 10:54:58;;;;;;;3.55;1.77;;;23.80;62.20;;;;;;5062320;28;20411;-80
2022/09/29 10:57:27;;;;;;;2.90;1.90;;;23.80;62.70;;;;;;5046017;28;20404;-80
2022/09/29 10:59:55;;;;;;;3.70;1.90;;;23.90;63.00;;;;;;5047974;28;20024;-88
2022/09/29 11:02:38;;;;;;;3.53;2.00;;;24.10;62.20;;;;;;5046694;28;20036;-83
2022/09/29 11:05:31;;;;;;;4.68;1.80;;;23.60;62.10;;;;;;5072228;28;20028;-82
2022/09/29 11:07:56;;;;;;;3.28;1.80;;;23.70;63.10;;;;;;5052500;28;20029;-81
2022/09/29 11:10:37;;;;;;;3.75;1.77;;;23.40;62.00;;;;;;5054941;28;20021;-80
2022/09/29 11:13:18;;;;;;;2.88;1.80;;;23.60;61.90;;;;;;5055406;28;20020;-81
2022/09/29 11:15:45;;;;;;;2.67;1.77;;;23.20;61.90;;;;;;5072325;28;20424;-83
2022/09/29 11:18:35;;;;;;;2.80;1.63;;;23.30;62.80;;;;;;5054952;28;20112;-81
2022/09/29 11:21:19;;;;;;;3.95;1.90;;;23.30;62.20;;;;;;5051578;28;20045;-81
2022/09/29 11:23:59;;;;;;;4.45;2.05;;;23.30;62.40;;;;;;5053644;28;20423;-80
2022/09/29 11:26:25;;;;;;;3.92;2.40;;;23.60;62.90;;;;;;5051223;28;20037;-87
2022/09/29 11:29:08;;;;;;;4.75;2.25;;;23.90;61.20;;;;;;5051210;28;20078;-83
2022/09/29 11:31:55;;;;;;;5.45;2.38;;;23.80;61.30;;;;;;5052292;28;20025;-82
2022/09/29 11:34:33;;;;;;;3.88;1.85;;;24.00;61.30;;;;;;5052247;28;20021;-79
2022/09/29 11:37:06;;;;;;;2.70;1.70;;;24.40;60.80;;;;;;5050607;28;20033;-82
2022/09/29 11:39:34;;;;;;;2.80;1.60;;;24.70;60.00;;;;;;5050999;28;20468;-81
2022/09/29 11:42:21;;;;;;;4.03;1.90;;;24.80;59.90;;;;;;5052304;28;20037;-80
2022/09/29 11:45:01;;;;;;;2.50;1.58;;;25.00;60.50;;;;;;5052241;28;20083;-89
2022/09/29 11:47:32;;;;;;;2.70;1.60;;;25.00;59.80;;;;;;5052589;28;20025;-86
2022/09/29 11:50:08;;;;;;;4.05;1.60;;;24.90;59.20;;;;;;5051289;28;20029;-80
2022/09/29 11:53:04;;;;;;;3.30;1.70;;;24.50;60.00;;;;;;5052325;28;20380;-81
2022/09/29 11:55:53;;;;;;;3.40;1.95;;;24.60;60.50;;;;;;5047619;28;20041;-86
2022/09/29 11:58:33;;;;;;;3.95;1.77;;;24.70;59.50;;;;;;5054489;28;20098;-80
2022/09/29 12:01:08;;;;;;;;;;;24.60;60.40;;;;;;5056155;28;20052;-81
2022/09/29 12:03:58;;;;;;;2.88;1.70;;;24.80;59.70;;;;;;5054922;28;19916;-83
2022/09/29 12:06:42;;;;;;;3.45;1.80;;;24.80;60.20;;;;;;5056014;28;20543;-82
2022/09/29 12:09:49;;;;;;;2.63;1.60;;;24.70;59.20;;;;;;5056238;28;20028;-84
2022/09/29 12:12:29;;;;;;;2.60;1.60;;;24.70;59.00;;;;;;4978094;28;20481;-83
2022/09/29 12:15:22;;;;;;;2.85;1.60;;;24.70;58.40;;;;;;4994261;28;20077;-82
2022/09/29 12:17:55;;;;;;;2.85;1.65;;;24.60;58.60;;;;;;4978069;28;20363;-82
2022/09/29 12:20:34;;;;;;;3.95;1.80;;;24.60;59.00;;;;;;4978183;28;20117;-81
2022/09/29 12:23:04;;;;;;;2.70;1.70;;;24.70;59.20;;;;;;4976940;28;20531;-83
2022/09/29 12:25:34;;;;;;;4.35;1.67;;;24.70;58.70;;;;;;4994242;28;20038;-81
2022/09/29 12:28:08;;;;;;;3.42;1.70;;;24.70;59.30;;;;;;4977799;28;20125;-83
2022/09/29 12:31:05;;;;;;;3.05;1.65;;;24.70;58.50;;;;;;4994894;28;20061;-82
2022/09/29 12:34:05;;;;;;;4.65;1.92;;;24.30;59.30;;;;;;4992913;28;20046;-81
2022/09/29 12:36:49;;;;;;;3.08;1.98;;;24.10;60.00;;;;;;4610305;28;10000100;-82
2022/09/29 12:39:26;;;;;;;3.55;1.80;;;24.40;60.10;;;;;;4955106;29;20031;-81
2022/09/29 12:42:01;;;;;;;3.72;1.52;;;24.40;59.80;;;;;;4954789;29;20042;-81
2022/09/29 12:44:39;;;;;;;3.88;1.42;;;24.50;59.90;;;;;;4938948;29;20031;-81
2022/09/29 12:47:11;;;;;;;3.33;1.60;;;24.70;59.60;;;;;;4988266;28;20038;-80
2022/09/29 12:49:52;;;;;;;3.00;1.70;;;24.90;59.00;;;;;;4993425;28;20113;-82
2022/09/29 12:52:28;;;;;;;3.20;1.80;;;25.10;58.70;;;;;;4993602;28;20070;-81
2022/09/29 12:54:57;;;;;;;2.47;1.60;;;25.10;58.50;;;;;;4978273;28;20169;-81
2022/09/29 12:57:33;;;;;;;3.10;1.70;;;25.10;58.60;;;;;;4994391;28;20031;-85
2022/09/29 13:00:02;;;;;;;3.42;1.60;;;25.00;58.50;;;;;;4977196;28;20034;-81
2022/09/29 13:02:56;;;;;;;3.47;1.70;;;25.00;59.30;;;;;;4993128;28;20038;-81
2022/09/29 13:05:56;;;;;;;3.67;1.75;;;25.00;58.50;;;;;;4993046;28;20041;-82
2022/09/29 13:08:39;;;;;;;3.00;1.77;;;25.00;58.40;;;;;;4992159;28;20418;-83